sensor_id;sensor_type;location;lat;lon;timestamp;P1;durP1;ratioP1;P2;durP2;ratioP2
17566;SDS011;8901;52.088;5.084;2022-09-21T00:01:03;5.93;;;4.23;;
17566;SDS011;8901;52.088;5.084;2022-09-21T00:03:30;5.97;;;4.80;;
17566;SDS011;8901;52.088;5.084;2022-09-21T00:06:00;6.10;;;4.93;;
17566;SDS011;8901;52.088;5.084;2022-09-21T00:08:37;5.87;;;4.87;;
17566;SDS011;8901;52.088;5.084;2022-09-21T00:11:06;5.33;;;4.67;;
17566;SDS011;8901;52.088;5.084;2022-09-21T00:13:36;6.10;;;4.50;;
17566;SDS011;8901;52.088;5.084;2022-09-21T00:16:04;5.77;;;4.63;;
17566;SDS011;8901;52.088;5.084;2022-09-21T00:18:31;5.87;;;5.27;;
17566;SDS011;8901;52.088;5.084;2022-09-21T00:20:59;5.87;;;4.83;;
17566;SDS011;8901;52.088;5.084;2022-09-21T00:23:27;5.93;;;4.30;;
17566;SDS011;8901;52.088;5.084;2022-09-21T00:26:02;5.40;;;4.20;;
17566;SDS011;8901;52.088;5.084;2022-09-21T00:28:32;5.17;;;4.07;;
17566;SDS011;8901;52.088;5.084;2022-09-21T00:31:00;8.53;;;4.50;;
17566;SDS011;8901;52.088;5.084;2022-09-21T00:33:27;4.83;;;3.53;;
17566;SDS011;8901;52.088;5.084;2022-09-21T00:35:54;5.43;;;3.70;;
17566;SDS011;8901;52.088;5.084;2022-09-21T00:38:21;5.33;;;4.10;;
17566;SDS011;8901;52.088;5.084;2022-09-21T00:40:48;4.43;;;3.77;;
17566;SDS011;8901;52.088;5.084;2022-09-21T00:43:15;5.67;;;3.90;;
17566;SDS011;8901;52.088;5.084;2022-09-21T00:45:45;7.17;;;4.40;;
17566;SDS011;8901;52.088;5.084;2022-09-21T00:51:36;4.03;;;3.37;;
17566;SDS011;8901;52.088;5.084;2022-09-21T00:56:59;8.63;;;4.10;;
17566;SDS011;8901;52.088;5.084;2022-09-21T00:59:28;5.13;;;4.07;;
17566;SDS011;8901;52.088;5.084;2022-09-21T01:01:59;5.13;;;3.70;;
17566;SDS011;8901;52.088;5.084;2022-09-21T01:04:26;3.77;;;3.43;;
17566;SDS011;8901;52.088;5.084;2022-09-21T01:06:54;5.23;;;3.50;;
17566;SDS011;8901;52.088;5.084;2022-09-21T01:09:23;7.53;;;4.00;;
17566;SDS011;8901;52.088;5.084;2022-09-21T01:11:54;4.97;;;3.93;;
17566;SDS011;8901;52.088;5.084;2022-09-21T01:14:33;5.37;;;4.03;;
17566;SDS011;8901;52.088;5.084;2022-09-21T01:17:15;5.07;;;3.50;;
17566;SDS011;8901;52.088;5.084;2022-09-21T01:20:09;6.27;;;3.90;;
17566;SDS011;8901;52.088;5.084;2022-09-21T01:23:09;4.80;;;3.90;;
17566;SDS011;8901;52.088;5.084;2022-09-21T01:25:58;5.23;;;3.57;;
17566;SDS011;8901;52.088;5.084;2022-09-21T01:28:46;4.97;;;3.60;;
17566;SDS011;8901;52.088;5.084;2022-09-21T01:31:35;5.47;;;3.80;;
17566;SDS011;8901;52.088;5.084;2022-09-21T01:34:06;4.93;;;3.80;;
17566;SDS011;8901;52.088;5.084;2022-09-21T01:36:37;4.77;;;3.80;;
17566;SDS011;8901;52.088;5.084;2022-09-21T01:39:09;8.70;;;4.23;;
17566;SDS011;8901;52.088;5.084;2022-09-21T01:41:39;5.73;;;4.23;;
17566;SDS011;8901;52.088;5.084;2022-09-21T01:44:11;4.40;;;4.00;;
17566;SDS011;8901;52.088;5.084;2022-09-21T01:46:43;5.13;;;3.37;;
17566;SDS011;8901;52.088;5.084;2022-09-21T01:49:12;7.27;;;4.00;;
17566;SDS011;8901;52.088;5.084;2022-09-21T01:51:42;4.70;;;3.43;;
17566;SDS011;8901;52.088;5.084;2022-09-21T01:54:14;5.90;;;4.10;;
17566;SDS011;8901;52.088;5.084;2022-09-21T01:56:46;3.93;;;3.57;;
17566;SDS011;8901;52.088;5.084;2022-09-21T01:59:20;4.80;;;3.70;;
17566;SDS011;8901;52.088;5.084;2022-09-21T02:01:52;6.67;;;3.80;;
17566;SDS011;8901;52.088;5.084;2022-09-21T02:04:21;6.10;;;3.40;;
17566;SDS011;8901;52.088;5.084;2022-09-21T02:06:48;5.00;;;3.87;;
17566;SDS011;8901;52.088;5.084;2022-09-21T02:09:18;5.30;;;3.43;;
17566;SDS011;8901;52.088;5.084;2022-09-21T02:11:46;5.47;;;3.70;;
17566;SDS011;8901;52.088;5.084;2022-09-21T02:14:14;4.63;;;3.70;;
17566;SDS011;8901;52.088;5.084;2022-09-21T02:16:45;4.10;;;3.70;;
17566;SDS011;8901;52.088;5.084;2022-09-21T02:19:23;6.47;;;3.63;;
17566;SDS011;8901;52.088;5.084;2022-09-21T02:22:01;4.20;;;3.50;;
17566;SDS011;8901;52.088;5.084;2022-09-21T02:24:32;5.10;;;3.57;;
17566;SDS011;8901;52.088;5.084;2022-09-21T02:27:04;5.77;;;3.83;;
17566;SDS011;8901;52.088;5.084;2022-09-21T02:29:36;4.10;;;3.80;;
17566;SDS011;8901;52.088;5.084;2022-09-21T02:32:15;5.83;;;4.53;;
17566;SDS011;8901;52.088;5.084;2022-09-21T02:34:51;5.63;;;3.93;;
17566;SDS011;8901;52.088;5.084;2022-09-21T02:37:22;6.37;;;4.00;;
17566;SDS011;8901;52.088;5.084;2022-09-21T02:39:58;4.50;;;4.10;;
17566;SDS011;8901;52.088;5.084;2022-09-21T02:42:30;4.87;;;4.47;;
17566;SDS011;8901;52.088;5.084;2022-09-21T02:45:04;4.17;;;3.77;;
17566;SDS011;8901;52.088;5.084;2022-09-21T02:47:37;3.80;;;3.50;;
17566;SDS011;8901;52.088;5.084;2022-09-21T02:53:14;4.83;;;3.50;;
17566;SDS011;8901;52.088;5.084;2022-09-21T02:58:33;4.70;;;4.10;;
17566;SDS011;8901;52.088;5.084;2022-09-21T03:01:03;3.90;;;3.50;;
17566;SDS011;8901;52.088;5.084;2022-09-21T03:03:34;3.93;;;3.50;;
17566;SDS011;8901;52.088;5.084;2022-09-21T03:06:01;4.47;;;3.83;;
17566;SDS011;8901;52.088;5.084;2022-09-21T03:08:28;4.13;;;3.37;;
17566;SDS011;8901;52.088;5.084;2022-09-21T03:11:14;4.10;;;3.40;;
17566;SDS011;8901;52.088;5.084;2022-09-21T03:13:42;4.13;;;3.73;;
17566;SDS011;8901;52.088;5.084;2022-09-21T03:16:09;5.13;;;4.20;;
17566;SDS011;8901;52.088;5.084;2022-09-21T03:18:38;5.37;;;4.13;;
17566;SDS011;8901;52.088;5.084;2022-09-21T03:21:07;4.90;;;4.20;;
17566;SDS011;8901;52.088;5.084;2022-09-21T03:23:35;4.93;;;3.63;;
17566;SDS011;8901;52.088;5.084;2022-09-21T03:28:32;4.37;;;3.93;;
17566;SDS011;8901;52.088;5.084;2022-09-21T03:30:59;4.97;;;4.33;;
17566;SDS011;8901;52.088;5.084;2022-09-21T03:33:26;5.77;;;4.00;;
17566;SDS011;8901;52.088;5.084;2022-09-21T03:35:54;4.43;;;3.77;;
17566;SDS011;8901;52.088;5.084;2022-09-21T03:38:23;4.33;;;3.70;;
17566;SDS011;8901;52.088;5.084;2022-09-21T03:40:51;3.60;;;3.30;;
17566;SDS011;8901;52.088;5.084;2022-09-21T03:43:22;6.20;;;4.00;;
17566;SDS011;8901;52.088;5.084;2022-09-21T03:45:49;3.80;;;3.33;;
17566;SDS011;8901;52.088;5.084;2022-09-21T03:48:16;4.23;;;3.90;;
17566;SDS011;8901;52.088;5.084;2022-09-21T03:50:43;4.87;;;4.00;;
17566;SDS011;8901;52.088;5.084;2022-09-21T03:53:11;4.23;;;3.83;;
17566;SDS011;8901;52.088;5.084;2022-09-21T03:55:39;3.90;;;3.53;;
17566;SDS011;8901;52.088;5.084;2022-09-21T03:58:06;4.07;;;3.70;;
17566;SDS011;8901;52.088;5.084;2022-09-21T04:00:33;5.57;;;4.60;;
17566;SDS011;8901;52.088;5.084;2022-09-21T04:03:00;6.00;;;5.50;;
17566;SDS011;8901;52.088;5.084;2022-09-21T04:05:27;5.17;;;4.77;;
17566;SDS011;8901;52.088;5.084;2022-09-21T04:07:54;5.17;;;4.77;;
17566;SDS011;8901;52.088;5.084;2022-09-21T04:10:23;6.10;;;5.50;;
17566;SDS011;8901;52.088;5.084;2022-09-21T04:12:57;5.20;;;4.80;;
17566;SDS011;8901;52.088;5.084;2022-09-21T04:15:26;5.83;;;4.27;;
17566;SDS011;8901;52.088;5.084;2022-09-21T04:17:54;4.50;;;4.10;;
17566;SDS011;8901;52.088;5.084;2022-09-21T04:20:21;4.67;;;4.27;;
17566;SDS011;8901;52.088;5.084;2022-09-21T04:22:48;7.47;;;4.90;;
17566;SDS011;8901;52.088;5.084;2022-09-21T04:25:15;6.67;;;4.60;;
17566;SDS011;8901;52.088;5.084;2022-09-21T04:27:44;4.77;;;4.37;;
17566;SDS011;8901;52.088;5.084;2022-09-21T04:30:11;4.57;;;4.17;;
17566;SDS011;8901;52.088;5.084;2022-09-21T04:32:39;4.70;;;3.80;;
17566;SDS011;8901;52.088;5.084;2022-09-21T04:35:07;4.70;;;4.20;;
17566;SDS011;8901;52.088;5.084;2022-09-21T04:37:34;7.97;;;4.70;;
17566;SDS011;8901;52.088;5.084;2022-09-21T04:40:01;5.23;;;4.67;;
17566;SDS011;8901;52.088;5.084;2022-09-21T04:42:29;7.33;;;6.63;;
17566;SDS011;8901;52.088;5.084;2022-09-21T04:44:57;7.53;;;6.93;;
17566;SDS011;8901;52.088;5.084;2022-09-21T04:47:24;4.93;;;4.63;;
17566;SDS011;8901;52.088;5.084;2022-09-21T04:49:51;6.60;;;4.47;;
17566;SDS011;8901;52.088;5.084;2022-09-21T04:52:18;4.77;;;4.37;;
17566;SDS011;8901;52.088;5.084;2022-09-21T04:54:45;7.30;;;5.10;;
17566;SDS011;8901;52.088;5.084;2022-09-21T04:57:12;8.60;;;6.13;;
17566;SDS011;8901;52.088;5.084;2022-09-21T04:59:39;5.67;;;5.17;;
17566;SDS011;8901;52.088;5.084;2022-09-21T05:02:07;4.50;;;4.20;;
17566;SDS011;8901;52.088;5.084;2022-09-21T05:04:35;5.73;;;4.50;;
17566;SDS011;8901;52.088;5.084;2022-09-21T05:07:02;5.07;;;4.57;;
17566;SDS011;8901;52.088;5.084;2022-09-21T05:09:29;3.83;;;3.40;;
17566;SDS011;8901;52.088;5.084;2022-09-21T05:12:13;3.80;;;3.50;;
17566;SDS011;8901;52.088;5.084;2022-09-21T05:14:40;4.97;;;4.07;;
17566;SDS011;8901;52.088;5.084;2022-09-21T05:17:10;4.37;;;3.77;;
17566;SDS011;8901;52.088;5.084;2022-09-21T05:19:37;6.03;;;4.03;;
17566;SDS011;8901;52.088;5.084;2022-09-21T05:22:17;3.50;;;3.20;;
17566;SDS011;8901;52.088;5.084;2022-09-21T05:24:44;6.03;;;3.40;;
17566;SDS011;8901;52.088;5.084;2022-09-21T05:27:11;4.67;;;3.50;;
17566;SDS011;8901;52.088;5.084;2022-09-21T05:29:38;5.07;;;3.33;;
17566;SDS011;8901;52.088;5.084;2022-09-21T05:32:07;10.27;;;4.40;;
17566;SDS011;8901;52.088;5.084;2022-09-21T05:34:46;8.13;;;4.27;;
17566;SDS011;8901;52.088;5.084;2022-09-21T05:37:25;6.57;;;4.60;;
17566;SDS011;8901;52.088;5.084;2022-09-21T05:40:04;8.03;;;4.10;;
17566;SDS011;8901;52.088;5.084;2022-09-21T05:42:32;9.13;;;4.77;;
17566;SDS011;8901;52.088;5.084;2022-09-21T05:44:59;8.33;;;4.20;;
17566;SDS011;8901;52.088;5.084;2022-09-21T05:47:33;7.23;;;4.87;;
17566;SDS011;8901;52.088;5.084;2022-09-21T05:50:05;6.07;;;4.27;;
17566;SDS011;8901;52.088;5.084;2022-09-21T05:52:46;5.63;;;4.50;;
17566;SDS011;8901;52.088;5.084;2022-09-21T05:55:22;4.20;;;3.80;;
17566;SDS011;8901;52.088;5.084;2022-09-21T05:57:57;4.40;;;3.90;;
17566;SDS011;8901;52.088;5.084;2022-09-21T06:00:33;4.30;;;3.90;;
17566;SDS011;8901;52.088;5.084;2022-09-21T06:03:20;6.40;;;4.73;;
17566;SDS011;8901;52.088;5.084;2022-09-21T06:05:52;5.20;;;4.00;;
17566;SDS011;8901;52.088;5.084;2022-09-21T06:08:19;6.07;;;5.50;;
17566;SDS011;8901;52.088;5.084;2022-09-21T06:10:47;7.20;;;6.50;;
17566;SDS011;8901;52.088;5.084;2022-09-21T06:13:15;7.47;;;6.67;;
17566;SDS011;8901;52.088;5.084;2022-09-21T06:15:43;8.13;;;6.33;;
17566;SDS011;8901;52.088;5.084;2022-09-21T06:18:10;7.77;;;4.80;;
17566;SDS011;8901;52.088;5.084;2022-09-21T06:20:38;5.70;;;4.93;;
17566;SDS011;8901;52.088;5.084;2022-09-21T06:23:06;6.50;;;5.90;;
17566;SDS011;8901;52.088;5.084;2022-09-21T06:25:34;10.37;;;6.00;;
17566;SDS011;8901;52.088;5.084;2022-09-21T06:28:02;8.37;;;6.03;;
17566;SDS011;8901;52.088;5.084;2022-09-21T06:30:29;8.00;;;5.87;;
17566;SDS011;8901;52.088;5.084;2022-09-21T06:32:57;14.53;;;6.00;;
17566;SDS011;8901;52.088;5.084;2022-09-21T06:35:25;6.10;;;5.13;;
17566;SDS011;8901;52.088;5.084;2022-09-21T06:37:57;7.23;;;5.50;;
17566;SDS011;8901;52.088;5.084;2022-09-21T06:40:25;7.43;;;5.90;;
17566;SDS011;8901;52.088;5.084;2022-09-21T06:42:56;7.27;;;5.43;;
17566;SDS011;8901;52.088;5.084;2022-09-21T06:45:23;9.17;;;6.00;;
17566;SDS011;8901;52.088;5.084;2022-09-21T06:47:50;5.77;;;5.17;;
17566;SDS011;8901;52.088;5.084;2022-09-21T06:50:17;7.47;;;4.90;;
17566;SDS011;8901;52.088;5.084;2022-09-21T06:52:44;7.20;;;5.47;;
17566;SDS011;8901;52.088;5.084;2022-09-21T06:55:13;6.80;;;4.10;;
17566;SDS011;8901;52.088;5.084;2022-09-21T06:57:40;7.80;;;5.47;;
17566;SDS011;8901;52.088;5.084;2022-09-21T07:00:08;9.47;;;5.20;;
17566;SDS011;8901;52.088;5.084;2022-09-21T07:02:37;8.13;;;4.90;;
17566;SDS011;8901;52.088;5.084;2022-09-21T07:05:04;7.93;;;4.80;;
17566;SDS011;8901;52.088;5.084;2022-09-21T07:07:31;13.33;;;4.97;;
17566;SDS011;8901;52.088;5.084;2022-09-21T07:10:00;7.23;;;3.77;;
17566;SDS011;8901;52.088;5.084;2022-09-21T07:12:29;8.27;;;4.60;;
17566;SDS011;8901;52.088;5.084;2022-09-21T07:14:58;6.90;;;4.60;;
17566;SDS011;8901;52.088;5.084;2022-09-21T07:17:29;6.67;;;4.17;;
17566;SDS011;8901;52.088;5.084;2022-09-21T07:19:57;8.03;;;4.60;;
17566;SDS011;8901;52.088;5.084;2022-09-21T07:22:24;8.27;;;3.80;;
17566;SDS011;8901;52.088;5.084;2022-09-21T07:24:53;10.17;;;5.13;;
17566;SDS011;8901;52.088;5.084;2022-09-21T07:27:19;6.50;;;4.07;;
17566;SDS011;8901;52.088;5.084;2022-09-21T07:29:48;6.03;;;3.60;;
17566;SDS011;8901;52.088;5.084;2022-09-21T07:32:15;8.67;;;4.10;;
17566;SDS011;8901;52.088;5.084;2022-09-21T07:34:42;7.40;;;4.10;;
17566;SDS011;8901;52.088;5.084;2022-09-21T07:37:09;9.63;;;4.90;;
17566;SDS011;8901;52.088;5.084;2022-09-21T07:39:36;6.27;;;3.93;;
17566;SDS011;8901;52.088;5.084;2022-09-21T07:42:03;5.93;;;3.00;;
17566;SDS011;8901;52.088;5.084;2022-09-21T07:44:31;5.47;;;3.23;;
17566;SDS011;8901;52.088;5.084;2022-09-21T07:47:05;4.97;;;3.30;;
17566;SDS011;8901;52.088;5.084;2022-09-21T07:49:33;5.13;;;3.50;;
17566;SDS011;8901;52.088;5.084;2022-09-21T07:52:00;5.77;;;3.10;;
17566;SDS011;8901;52.088;5.084;2022-09-21T07:54:27;4.53;;;3.10;;
17566;SDS011;8901;52.088;5.084;2022-09-21T07:56:54;6.10;;;3.43;;
17566;SDS011;8901;52.088;5.084;2022-09-21T07:59:39;5.83;;;3.50;;
17566;SDS011;8901;52.088;5.084;2022-09-21T08:02:07;4.77;;;2.83;;
17566;SDS011;8901;52.088;5.084;2022-09-21T08:04:34;4.67;;;2.77;;
17566;SDS011;8901;52.088;5.084;2022-09-21T08:07:01;3.43;;;2.47;;
17566;SDS011;8901;52.088;5.084;2022-09-21T08:09:27;3.80;;;2.87;;
17566;SDS011;8901;52.088;5.084;2022-09-21T08:11:54;5.07;;;2.70;;
17566;SDS011;8901;52.088;5.084;2022-09-21T08:14:25;5.80;;;3.03;;
17566;SDS011;8901;52.088;5.084;2022-09-21T08:16:53;3.93;;;2.30;;
17566;SDS011;8901;52.088;5.084;2022-09-21T08:19:21;9.47;;;2.40;;
17566;SDS011;8901;52.088;5.084;2022-09-21T08:21:49;7.10;;;2.27;;
17566;SDS011;8901;52.088;5.084;2022-09-21T08:24:17;6.40;;;2.30;;
17566;SDS011;8901;52.088;5.084;2022-09-21T08:26:44;5.27;;;2.47;;
17566;SDS011;8901;52.088;5.084;2022-09-21T08:29:12;4.30;;;2.30;;
17566;SDS011;8901;52.088;5.084;2022-09-21T08:31:39;6.67;;;2.80;;
17566;SDS011;8901;52.088;5.084;2022-09-21T08:34:07;6.13;;;2.93;;
17566;SDS011;8901;52.088;5.084;2022-09-21T08:36:35;4.47;;;2.73;;
17566;SDS011;8901;52.088;5.084;2022-09-21T08:39:03;5.83;;;2.37;;
17566;SDS011;8901;52.088;5.084;2022-09-21T08:41:34;7.23;;;2.70;;
17566;SDS011;8901;52.088;5.084;2022-09-21T08:44:16;6.90;;;2.60;;
17566;SDS011;8901;52.088;5.084;2022-09-21T08:49:38;3.50;;;2.70;;
17566;SDS011;8901;52.088;5.084;2022-09-21T08:52:11;6.37;;;2.97;;
17566;SDS011;8901;52.088;5.084;2022-09-21T08:54:41;4.73;;;2.90;;
17566;SDS011;8901;52.088;5.084;2022-09-21T08:57:12;4.57;;;3.50;;
17566;SDS011;8901;52.088;5.084;2022-09-21T08:59:40;5.83;;;3.00;;
17566;SDS011;8901;52.088;5.084;2022-09-21T09:02:17;4.93;;;3.93;;
17566;SDS011;8901;52.088;5.084;2022-09-21T09:04:57;6.70;;;4.73;;
17566;SDS011;8901;52.088;5.084;2022-09-21T09:07:34;6.47;;;3.50;;
17566;SDS011;8901;52.088;5.084;2022-09-21T09:10:18;3.80;;;3.10;;
17566;SDS011;8901;52.088;5.084;2022-09-21T09:13:01;5.73;;;3.27;;
17566;SDS011;8901;52.088;5.084;2022-09-21T09:15:49;5.67;;;4.40;;
17566;SDS011;8901;52.088;5.084;2022-09-21T09:18:28;5.37;;;3.90;;
17566;SDS011;8901;52.088;5.084;2022-09-21T09:21:04;5.90;;;5.00;;
17566;SDS011;8901;52.088;5.084;2022-09-21T09:23:38;6.17;;;5.57;;
17566;SDS011;8901;52.088;5.084;2022-09-21T09:26:11;8.80;;;7.13;;
17566;SDS011;8901;52.088;5.084;2022-09-21T09:28:45;5.70;;;5.20;;
17566;SDS011;8901;52.088;5.084;2022-09-21T09:31:17;6.03;;;4.77;;
17566;SDS011;8901;52.088;5.084;2022-09-21T09:33:49;6.57;;;4.70;;
17566;SDS011;8901;52.088;5.084;2022-09-21T09:36:20;4.90;;;4.40;;
17566;SDS011;8901;52.088;5.084;2022-09-21T09:38:53;6.97;;;4.90;;
17566;SDS011;8901;52.088;5.084;2022-09-21T09:41:32;7.23;;;4.53;;
17566;SDS011;8901;52.088;5.084;2022-09-21T09:44:12;7.47;;;5.10;;
17566;SDS011;8901;52.088;5.084;2022-09-21T09:46:51;6.53;;;5.20;;
17566;SDS011;8901;52.088;5.084;2022-09-21T09:49:27;6.43;;;5.80;;
17566;SDS011;8901;52.088;5.084;2022-09-21T09:52:04;6.53;;;5.93;;
17566;SDS011;8901;52.088;5.084;2022-09-21T09:54:37;10.67;;;8.60;;
17566;SDS011;8901;52.088;5.084;2022-09-21T09:57:05;7.53;;;6.63;;
17566;SDS011;8901;52.088;5.084;2022-09-21T09:59:35;11.17;;;7.13;;
17566;SDS011;8901;52.088;5.084;2022-09-21T10:02:17;7.70;;;7.03;;
17566;SDS011;8901;52.088;5.084;2022-09-21T10:04:53;7.13;;;6.53;;
17566;SDS011;8901;52.088;5.084;2022-09-21T10:07:30;8.77;;;6.73;;
17566;SDS011;8901;52.088;5.084;2022-09-21T10:10:02;8.87;;;8.17;;
17566;SDS011;8901;52.088;5.084;2022-09-21T10:12:47;9.63;;;7.93;;
17566;SDS011;8901;52.088;5.084;2022-09-21T10:15:15;8.33;;;7.70;;
17566;SDS011;8901;52.088;5.084;2022-09-21T10:17:43;10.60;;;8.27;;
17566;SDS011;8901;52.088;5.084;2022-09-21T10:20:13;9.80;;;8.83;;
17566;SDS011;8901;52.088;5.084;2022-09-21T10:22:42;10.63;;;9.67;;
17566;SDS011;8901;52.088;5.084;2022-09-21T10:25:15;10.40;;;9.53;;
17566;SDS011;8901;52.088;5.084;2022-09-21T10:27:47;10.80;;;9.77;;
17566;SDS011;8901;52.088;5.084;2022-09-21T10:30:30;11.03;;;10.17;;
17566;SDS011;8901;52.088;5.084;2022-09-21T10:32:59;11.53;;;10.53;;
17566;SDS011;8901;52.088;5.084;2022-09-21T10:35:48;11.70;;;10.57;;
17566;SDS011;8901;52.088;5.084;2022-09-21T10:38:17;11.67;;;10.77;;
17566;SDS011;8901;52.088;5.084;2022-09-21T10:40:47;12.87;;;11.67;;
17566;SDS011;8901;52.088;5.084;2022-09-21T10:43:22;12.47;;;11.47;;
17566;SDS011;8901;52.088;5.084;2022-09-21T10:45:51;12.63;;;11.77;;
17566;SDS011;8901;52.088;5.084;2022-09-21T10:48:21;13.60;;;12.50;;
17566;SDS011;8901;52.088;5.084;2022-09-21T10:50:59;14.20;;;13.17;;
17566;SDS011;8901;52.088;5.084;2022-09-21T10:53:27;13.80;;;12.90;;
17566;SDS011;8901;52.088;5.084;2022-09-21T10:56:05;14.40;;;13.50;;
17566;SDS011;8901;52.088;5.084;2022-09-21T10:58:41;15.90;;;14.90;;
17566;SDS011;8901;52.088;5.084;2022-09-21T11:01:41;14.83;;;13.83;;
17566;SDS011;8901;52.088;5.084;2022-09-21T11:04:10;15.47;;;14.30;;
17566;SDS011;8901;52.088;5.084;2022-09-21T11:06:40;16.50;;;15.37;;
17566;SDS011;8901;52.088;5.084;2022-09-21T11:09:11;15.50;;;14.50;;
17566;SDS011;8901;52.088;5.084;2022-09-21T11:11:49;15.00;;;14.10;;
17566;SDS011;8901;52.088;5.084;2022-09-21T11:17:10;16.93;;;15.73;;
17566;SDS011;8901;52.088;5.084;2022-09-21T11:19:42;14.93;;;13.93;;
17566;SDS011;8901;52.088;5.084;2022-09-21T11:22:17;15.77;;;14.47;;
17566;SDS011;8901;52.088;5.084;2022-09-21T11:24:52;16.13;;;15.03;;
17566;SDS011;8901;52.088;5.084;2022-09-21T11:27:28;26.20;;;14.57;;
17566;SDS011;8901;52.088;5.084;2022-09-21T11:30:00;16.03;;;14.80;;
17566;SDS011;8901;52.088;5.084;2022-09-21T11:32:42;16.30;;;15.20;;
17566;SDS011;8901;52.088;5.084;2022-09-21T11:35:23;16.60;;;15.60;;
17566;SDS011;8901;52.088;5.084;2022-09-21T11:38:03;17.10;;;15.90;;
17566;SDS011;8901;52.088;5.084;2022-09-21T11:40:48;17.90;;;16.60;;
17566;SDS011;8901;52.088;5.084;2022-09-21T11:43:32;18.73;;;17.63;;
17566;SDS011;8901;52.088;5.084;2022-09-21T11:46:28;18.80;;;17.60;;
17566;SDS011;8901;52.088;5.084;2022-09-21T11:49:09;16.03;;;14.93;;
17566;SDS011;8901;52.088;5.084;2022-09-21T11:55:14;17.30;;;16.20;;
17566;SDS011;8901;52.088;5.084;2022-09-21T11:57:50;18.73;;;17.53;;
17566;SDS011;8901;52.088;5.084;2022-09-21T12:00:24;19.97;;;18.67;;
17566;SDS011;8901;52.088;5.084;2022-09-21T12:06:01;18.33;;;17.00;;
17566;SDS011;8901;52.088;5.084;2022-09-21T12:08:41;19.53;;;18.10;;
17566;SDS011;8901;52.088;5.084;2022-09-21T12:11:23;17.53;;;16.30;;
17566;SDS011;8901;52.088;5.084;2022-09-21T12:17:25;17.50;;;16.43;;
17566;SDS011;8901;52.088;5.084;2022-09-21T12:20:02;19.33;;;17.97;;
17566;SDS011;8901;52.088;5.084;2022-09-21T12:22:36;15.17;;;14.07;;
17566;SDS011;8901;52.088;5.084;2022-09-21T12:25:11;17.83;;;16.23;;
17566;SDS011;8901;52.088;5.084;2022-09-21T12:27:41;19.33;;;17.80;;
17566;SDS011;8901;52.088;5.084;2022-09-21T12:30:13;19.23;;;17.83;;
17566;SDS011;8901;52.088;5.084;2022-09-21T12:32:45;19.17;;;17.87;;
17566;SDS011;8901;52.088;5.084;2022-09-21T12:35:20;19.40;;;18.10;;
17566;SDS011;8901;52.088;5.084;2022-09-21T12:37:53;20.17;;;18.87;;
17566;SDS011;8901;52.088;5.084;2022-09-21T12:40:27;19.70;;;18.50;;
17566;SDS011;8901;52.088;5.084;2022-09-21T12:43:02;20.50;;;18.80;;
17566;SDS011;8901;52.088;5.084;2022-09-21T12:45:40;19.43;;;17.80;;
17566;SDS011;8901;52.088;5.084;2022-09-21T12:48:13;16.70;;;15.43;;
17566;SDS011;8901;52.088;5.084;2022-09-21T12:50:51;18.87;;;17.50;;
17566;SDS011;8901;52.088;5.084;2022-09-21T12:53:21;18.50;;;17.20;;
17566;SDS011;8901;52.088;5.084;2022-09-21T12:55:53;18.90;;;17.70;;
17566;SDS011;8901;52.088;5.084;2022-09-21T12:58:29;18.40;;;17.30;;
17566;SDS011;8901;52.088;5.084;2022-09-21T13:01:12;19.20;;;17.80;;
17566;SDS011;8901;52.088;5.084;2022-09-21T13:03:54;17.67;;;16.50;;
17566;SDS011;8901;52.088;5.084;2022-09-21T13:06:47;18.47;;;16.90;;
17566;SDS011;8901;52.088;5.084;2022-09-21T13:09:43;18.23;;;16.77;;
17566;SDS011;8901;52.088;5.084;2022-09-21T13:12:13;17.70;;;16.30;;
17566;SDS011;8901;52.088;5.084;2022-09-21T13:14:44;18.33;;;16.77;;
17566;SDS011;8901;52.088;5.084;2022-09-21T13:17:26;18.47;;;17.00;;
17566;SDS011;8901;52.088;5.084;2022-09-21T13:19:59;17.60;;;16.30;;
17566;SDS011;8901;52.088;5.084;2022-09-21T13:22:30;17.90;;;16.77;;
17566;SDS011;8901;52.088;5.084;2022-09-21T13:25:03;18.47;;;17.23;;
17566;SDS011;8901;52.088;5.084;2022-09-21T13:30:32;18.40;;;17.20;;
17566;SDS011;8901;52.088;5.084;2022-09-21T13:33:02;19.20;;;17.80;;
17566;SDS011;8901;52.088;5.084;2022-09-21T13:35:49;18.80;;;17.10;;
17566;SDS011;8901;52.088;5.084;2022-09-21T13:38:21;17.47;;;16.33;;
17566;SDS011;8901;52.088;5.084;2022-09-21T13:40:55;15.60;;;14.43;;
17566;SDS011;8901;52.088;5.084;2022-09-21T13:43:24;17.80;;;16.17;;
17566;SDS011;8901;52.088;5.084;2022-09-21T13:52:23;17.60;;;16.40;;
17566;SDS011;8901;52.088;5.084;2022-09-21T13:54:54;18.10;;;16.77;;
17566;SDS011;8901;52.088;5.084;2022-09-21T13:57:24;17.30;;;16.20;;
17566;SDS011;8901;52.088;5.084;2022-09-21T14:03:05;13.60;;;12.70;;
17566;SDS011;8901;52.088;5.084;2022-09-21T14:05:43;9.67;;;9.07;;
17566;SDS011;8901;52.088;5.084;2022-09-21T14:08:20;12.17;;;11.17;;
17566;SDS011;8901;52.088;5.084;2022-09-21T14:10:52;16.90;;;15.80;;
17566;SDS011;8901;52.088;5.084;2022-09-21T14:13:23;17.70;;;16.33;;
17566;SDS011;8901;52.088;5.084;2022-09-21T14:16:08;17.83;;;16.63;;
17566;SDS011;8901;52.088;5.084;2022-09-21T14:25:47;18.03;;;16.70;;
17566;SDS011;8901;52.088;5.084;2022-09-21T14:28:15;15.80;;;14.63;;
17566;SDS011;8901;52.088;5.084;2022-09-21T14:30:48;17.60;;;16.40;;
17566;SDS011;8901;52.088;5.084;2022-09-21T14:33:21;17.40;;;16.20;;
17566;SDS011;8901;52.088;5.084;2022-09-21T14:35:59;17.80;;;16.57;;
17566;SDS011;8901;52.088;5.084;2022-09-21T14:38:38;16.93;;;15.83;;
17566;SDS011;8901;52.088;5.084;2022-09-21T14:41:14;18.43;;;17.10;;
17566;SDS011;8901;52.088;5.084;2022-09-21T14:43:47;17.70;;;16.50;;
17566;SDS011;8901;52.088;5.084;2022-09-21T14:46:23;18.40;;;17.17;;
17566;SDS011;8901;52.088;5.084;2022-09-21T14:52:37;18.13;;;17.03;;
17566;SDS011;8901;52.088;5.084;2022-09-21T14:55:16;18.50;;;17.30;;
17566;SDS011;8901;52.088;5.084;2022-09-21T14:57:59;17.07;;;16.00;;
17566;SDS011;8901;52.088;5.084;2022-09-21T15:00:41;17.20;;;16.00;;
17566;SDS011;8901;52.088;5.084;2022-09-21T15:03:15;16.73;;;15.73;;
17566;SDS011;8901;52.088;5.084;2022-09-21T15:09:34;16.43;;;15.43;;
17566;SDS011;8901;52.088;5.084;2022-09-21T15:12:34;19.37;;;18.10;;
17566;SDS011;8901;52.088;5.084;2022-09-21T15:15:09;14.83;;;13.87;;
17566;SDS011;8901;52.088;5.084;2022-09-21T15:17:51;11.07;;;10.30;;
17566;SDS011;8901;52.088;5.084;2022-09-21T15:20:23;10.70;;;9.90;;
17566;SDS011;8901;52.088;5.084;2022-09-21T15:22:52;10.87;;;10.07;;
17566;SDS011;8901;52.088;5.084;2022-09-21T15:25:21;10.90;;;10.00;;
17566;SDS011;8901;52.088;5.084;2022-09-21T15:27:52;11.30;;;10.50;;
17566;SDS011;8901;52.088;5.084;2022-09-21T15:30:21;12.20;;;10.83;;
17566;SDS011;8901;52.088;5.084;2022-09-21T15:32:51;11.87;;;11.13;;
17566;SDS011;8901;52.088;5.084;2022-09-21T15:35:21;12.77;;;11.73;;
17566;SDS011;8901;52.088;5.084;2022-09-21T15:37:50;15.90;;;12.43;;
17566;SDS011;8901;52.088;5.084;2022-09-21T15:40:19;12.53;;;11.57;;
17566;SDS011;8901;52.088;5.084;2022-09-21T15:42:58;12.60;;;11.70;;
17566;SDS011;8901;52.088;5.084;2022-09-21T15:45:29;11.90;;;11.00;;
17566;SDS011;8901;52.088;5.084;2022-09-21T15:47:58;18.30;;;16.53;;
17566;SDS011;8901;52.088;5.084;2022-09-21T15:50:26;57.37;;;41.70;;
17566;SDS011;8901;52.088;5.084;2022-09-21T15:52:55;18.77;;;16.30;;
17566;SDS011;8901;52.088;5.084;2022-09-21T15:55:26;14.67;;;13.33;;
17566;SDS011;8901;52.088;5.084;2022-09-21T15:57:55;15.10;;;14.10;;
17566;SDS011;8901;52.088;5.084;2022-09-21T16:03:18;16.77;;;15.57;;
17566;SDS011;8901;52.088;5.084;2022-09-21T16:05:48;16.53;;;15.43;;
17566;SDS011;8901;52.088;5.084;2022-09-21T16:11:11;16.57;;;15.47;;
17566;SDS011;8901;52.088;5.084;2022-09-21T16:20:10;15.93;;;14.83;;
17566;SDS011;8901;52.088;5.084;2022-09-21T16:22:44;16.40;;;15.40;;
17566;SDS011;8901;52.088;5.084;2022-09-21T16:25:19;16.97;;;15.90;;
17566;SDS011;8901;52.088;5.084;2022-09-21T16:27:54;17.90;;;16.70;;
17566;SDS011;8901;52.088;5.084;2022-09-21T16:30:41;18.53;;;17.23;;
17566;SDS011;8901;52.088;5.084;2022-09-21T16:33:35;19.63;;;18.13;;